createdAt,value
2018-07-08T00:00:44.467Z,1013.58
2018-07-08T00:01:44.468Z,1013.55
2018-07-08T00:02:44.471Z,1013.56
2018-07-08T00:03:44.470Z,1013.53
2018-07-08T00:04:44.468Z,1013.55
2018-07-08T00:05:44.470Z,1013.51
2018-07-08T00:06:44.472Z,1013.56
2018-07-08T00:07:44.471Z,1013.51
2018-07-08T00:08:44.473Z,1013.53
2018-07-08T00:09:44.470Z,1013.54
2018-07-08T00:10:44.473Z,1013.54
2018-07-08T00:11:44.473Z,1013.50
2018-07-08T00:12:44.473Z,1013.51
2018-07-08T00:13:44.471Z,1013.53
2018-07-08T00:14:44.476Z,1013.49
2018-07-08T00:15:44.473Z,1013.49
2018-07-08T00:16:44.471Z,1013.53
2018-07-08T00:17:44.474Z,1013.49
2018-07-08T00:18:44.473Z,1013.53
2018-07-08T00:19:44.475Z,1013.50
2018-07-08T00:20:44.472Z,1013.53
2018-07-08T00:21:44.473Z,1013.55
2018-07-08T00:22:44.473Z,1013.53
2018-07-08T00:23:44.476Z,1013.55
2018-07-08T00:24:44.473Z,1013.51
2018-07-08T00:25:44.473Z,1013.55
2018-07-08T00:26:44.475Z,1013.52
2018-07-08T00:27:44.479Z,1013.46
2018-07-08T00:28:44.473Z,1013.50
2018-07-08T00:29:44.474Z,1013.47
2018-07-08T00:30:44.474Z,1013.46
2018-07-08T00:31:44.474Z,1013.48
2018-07-08T00:32:44.472Z,1013.49
2018-07-08T00:33:44.474Z,1013.44
2018-07-08T00:34:44.475Z,1013.45
2018-07-08T00:35:44.474Z,1013.45
2018-07-08T00:36:44.472Z,1013.41
2018-07-08T00:37:44.474Z,1013.42
2018-07-08T00:38:44.472Z,1013.39
2018-07-08T00:39:44.499Z,1013.41
2018-07-08T00:40:44.477Z,1013.37
2018-07-08T00:41:44.472Z,1013.42
2018-07-08T00:42:44.473Z,1013.44
2018-07-08T00:43:44.472Z,1013.43
2018-07-08T00:44:44.472Z,1013.42
2018-07-08T00:45:44.471Z,1013.41
2018-07-08T00:46:44.473Z,1013.47
2018-07-08T00:47:44.474Z,1013.43
2018-07-08T00:48:44.472Z,1013.43
2018-07-08T00:49:44.471Z,1013.44
2018-07-08T00:50:44.473Z,1013.44
2018-07-08T00:51:44.471Z,1013.48
2018-07-08T00:52:44.471Z,1013.46
2018-07-08T00:53:44.471Z,1013.46
2018-07-08T00:54:44.470Z,1013.49
2018-07-08T00:55:44.475Z,1013.47
2018-07-08T00:56:44.471Z,1013.51
2018-07-08T00:57:44.469Z,1013.49
2018-07-08T00:58:44.470Z,1013.49
2018-07-08T00:59:44.468Z,1013.52
2018-07-08T01:00:44.470Z,1013.50
2018-07-08T01:01:44.533Z,1013.50
2018-07-08T01:02:44.468Z,1013.53
2018-07-08T01:03:44.468Z,1013.55
2018-07-08T01:04:44.471Z,1013.57
2018-07-08T01:05:44.467Z,1013.54
2018-07-08T01:06:44.468Z,1013.59
2018-07-08T01:07:44.467Z,1013.58
2018-07-08T01:08:44.471Z,1013.58
2018-07-08T01:09:44.466Z,1013.59
2018-07-08T01:10:44.469Z,1013.57
2018-07-08T01:11:44.466Z,1013.58
2018-07-08T01:12:44.467Z,1013.56
2018-07-08T01:13:44.463Z,1013.55
2018-07-08T01:14:44.464Z,1013.58
2018-07-08T01:15:44.463Z,1013.57
2018-07-08T01:16:44.462Z,1013.58
2018-07-08T01:17:44.463Z,1013.61
2018-07-08T01:18:44.462Z,1013.57
2018-07-08T01:19:44.463Z,1013.58
2018-07-08T01:20:44.461Z,1013.63
2018-07-08T01:21:44.461Z,1013.61
2018-07-08T01:22:44.461Z,1013.64
2018-07-08T01:23:44.460Z,1013.68
2018-07-08T01:24:44.459Z,1013.68
2018-07-08T01:25:44.459Z,1013.68
2018-07-08T01:26:44.458Z,1013.68
2018-07-08T01:27:44.463Z,1013.69
2018-07-08T01:28:44.458Z,1013.70
2018-07-08T01:29:44.457Z,1013.70
2018-07-08T01:30:44.459Z,1013.72
2018-07-08T01:31:44.457Z,1013.73
2018-07-08T01:32:44.455Z,1013.71
2018-07-08T01:33:44.455Z,1013.73
2018-07-08T01:34:44.455Z,1013.72
2018-07-08T01:35:44.454Z,1013.72
2018-07-08T01:36:44.453Z,1013.73
2018-07-08T01:37:44.452Z,1013.72
2018-07-08T01:38:44.453Z,1013.75
2018-07-08T01:39:44.455Z,1013.75
2018-07-08T01:40:44.451Z,1013.71
2018-07-08T01:41:44.451Z,1013.77
2018-07-08T01:42:44.450Z,1013.71
2018-07-08T01:43:44.450Z,1013.69
2018-07-08T01:44:44.449Z,1013.79
2018-07-08T01:45:44.449Z,1013.76
2018-07-08T01:46:44.449Z,1013.76
2018-07-08T01:47:44.448Z,1013.74
2018-07-08T01:48:44.446Z,1013.74
2018-07-08T01:49:44.445Z,1013.74
2018-07-08T01:50:44.445Z,1013.76
2018-07-08T01:51:44.444Z,1013.74
2018-07-08T01:52:44.443Z,1013.74
2018-07-08T01:53:44.443Z,1013.77
2018-07-08T01:54:44.442Z,1013.74
2018-07-08T01:55:44.442Z,1013.76
2018-07-08T01:56:44.440Z,1013.76
2018-07-08T01:57:44.438Z,1013.81
2018-07-08T01:58:44.439Z,1013.69
2018-07-08T01:59:44.439Z,1013.80
2018-07-08T02:00:44.436Z,1013.75
2018-07-08T02:01:44.437Z,1013.78
2018-07-08T02:02:44.436Z,1013.76
2018-07-08T02:03:44.437Z,1013.80
2018-07-08T02:04:44.434Z,1013.80
2018-07-08T02:05:44.434Z,1013.77
2018-07-08T02:06:44.433Z,1013.72
2018-07-08T02:07:44.434Z,1013.76
2018-07-08T02:08:44.431Z,1013.79
2018-07-08T02:09:44.431Z,1013.72
2018-07-08T02:10:44.431Z,1013.78
2018-07-08T02:11:44.429Z,1013.79
2018-07-08T02:12:44.428Z,1013.80
2018-07-08T02:13:44.428Z,1013.81
2018-07-08T02:14:44.427Z,1013.79
2018-07-08T02:15:44.428Z,1013.77
2018-07-08T02:16:44.423Z,1013.82
2018-07-08T02:17:44.423Z,1013.83
2018-07-08T02:18:44.426Z,1013.81
2018-07-08T02:19:44.422Z,1013.86
2018-07-08T02:20:44.421Z,1013.84
2018-07-08T02:21:44.422Z,1013.87
2018-07-08T02:22:44.421Z,1013.88
2018-07-08T02:23:44.419Z,1013.85
2018-07-08T02:24:44.417Z,1013.84
2018-07-08T02:25:44.417Z,1013.86
2018-07-08T02:26:44.417Z,1013.87
2018-07-08T02:27:44.415Z,1013.91
2018-07-08T02:28:44.413Z,1013.88
2018-07-08T02:29:44.415Z,1013.91
2018-07-08T02:30:44.414Z,1013.90
2018-07-08T02:31:44.412Z,1013.86
2018-07-08T02:32:44.410Z,1013.88
2018-07-08T02:33:44.411Z,1013.86
2018-07-08T02:34:44.413Z,1013.90
2018-07-08T02:35:44.409Z,1013.86
2018-07-08T02:36:44.406Z,1013.88
2018-07-08T02:37:44.406Z,1013.89
2018-07-08T02:38:44.405Z,1013.86
2018-07-08T02:39:44.405Z,1013.90
2018-07-08T02:40:44.403Z,1013.87
2018-07-08T02:41:44.401Z,1013.85
2018-07-08T02:42:44.401Z,1013.90
2018-07-08T02:43:44.401Z,1013.89
2018-07-08T02:44:44.399Z,1013.89
2018-07-08T02:45:44.399Z,1013.89
2018-07-08T02:46:44.398Z,1013.95
2018-07-08T02:47:44.396Z,1013.94
2018-07-08T02:48:44.400Z,1013.97
2018-07-08T02:49:44.393Z,1014.00
2018-07-08T02:50:44.392Z,1013.96
2018-07-08T02:51:44.394Z,1013.97
2018-07-08T02:52:44.391Z,1013.97
2018-07-08T02:53:44.390Z,1014.00
2018-07-08T02:54:44.389Z,1014.00
2018-07-08T02:55:44.390Z,1014.02
2018-07-08T02:56:44.386Z,1014.03
2018-07-08T02:57:44.386Z,1014.04
2018-07-08T02:58:44.386Z,1014.06
2018-07-08T02:59:44.385Z,1014.06
2018-07-08T03:00:44.383Z,1014.04
2018-07-08T03:01:44.381Z,1014.03
2018-07-08T03:02:44.381Z,1014.04
2018-07-08T03:03:44.381Z,1014.03
2018-07-08T03:04:44.378Z,1014.07
2018-07-08T03:05:44.377Z,1014.05
2018-07-08T03:06:44.376Z,1014.06
2018-07-08T03:07:44.376Z,1014.08
2018-07-08T03:08:44.376Z,1014.08
2018-07-08T03:09:44.373Z,1014.10
2018-07-08T03:10:44.372Z,1014.07
2018-07-08T03:11:44.372Z,1014.09
2018-07-08T03:12:44.370Z,1014.08
2018-07-08T03:13:44.368Z,1014.11
2018-07-08T03:14:44.367Z,1014.12
2018-07-08T03:15:44.366Z,1014.10
2018-07-08T03:16:44.365Z,1014.08
2018-07-08T03:17:44.364Z,1014.06
2018-07-08T03:18:44.365Z,1014.05
2018-07-08T03:19:44.362Z,1014.07
2018-07-08T03:20:44.360Z,1014.04
2018-07-08T03:21:44.360Z,1014.07
2018-07-08T03:22:44.357Z,1014.05
2018-07-08T03:23:44.357Z,1014.07
2018-07-08T03:24:44.355Z,1014.07
2018-07-08T03:25:44.356Z,1014.07
2018-07-08T03:26:44.354Z,1014.10
2018-07-08T03:27:44.354Z,1014.14
2018-07-08T03:28:44.354Z,1014.09
2018-07-08T03:29:44.350Z,1014.13
2018-07-08T03:30:44.351Z,1014.11
2018-07-08T03:31:44.350Z,1014.12
2018-07-08T03:32:44.346Z,1014.10
2018-07-08T03:33:44.344Z,1014.12
2018-07-08T03:34:44.345Z,1014.10
2018-07-08T03:35:44.342Z,1014.10
2018-07-08T03:36:44.341Z,1014.13
2018-07-08T03:37:44.344Z,1014.12
2018-07-08T03:38:44.340Z,1014.15
2018-07-08T03:39:44.339Z,1014.07
2018-07-08T03:40:44.339Z,1014.11
2018-07-08T03:41:44.334Z,1014.08
2018-07-08T03:42:44.334Z,1014.04
2018-07-08T03:43:44.335Z,1014.07
2018-07-08T03:44:44.332Z,1014.09
2018-07-08T03:45:44.334Z,1014.11
2018-07-08T03:46:44.330Z,1014.08
2018-07-08T03:47:44.329Z,1014.10
2018-07-08T03:48:44.328Z,1014.07
2018-07-08T03:49:44.327Z,1014.10
2018-07-08T03:50:44.324Z,1014.10
2018-07-08T03:51:44.323Z,1014.07
2018-07-08T03:52:44.322Z,1014.10
2018-07-08T03:53:44.321Z,1014.10
2018-07-08T03:54:44.321Z,1014.11
2018-07-08T03:55:44.322Z,1014.08
2018-07-08T03:56:44.317Z,1014.14
2018-07-08T03:57:44.316Z,1014.15
2018-07-08T03:58:44.317Z,1014.13
2018-07-08T03:59:44.315Z,1014.13
2018-07-08T04:00:44.313Z,1014.18
2018-07-08T04:01:44.312Z,1014.18
2018-07-08T04:02:44.310Z,1014.21
2018-07-08T04:03:44.309Z,1014.20
2018-07-08T04:04:44.308Z,1014.18
2018-07-08T04:05:44.310Z,1014.17
2018-07-08T04:06:44.305Z,1014.16
2018-07-08T04:07:44.306Z,1014.15
2018-07-08T04:08:44.303Z,1014.13
2018-07-08T04:09:44.302Z,1014.18
2018-07-08T04:10:44.301Z,1014.13
2018-07-08T04:11:44.301Z,1014.19
2018-07-08T04:12:44.297Z,1014.19
2018-07-08T04:13:44.298Z,1014.20
2018-07-08T04:14:44.296Z,1014.17
2018-07-08T04:15:44.295Z,1014.17
2018-07-08T04:16:44.296Z,1014.16
2018-07-08T04:17:44.292Z,1014.12
2018-07-08T04:18:44.292Z,1014.16
2018-07-08T04:19:44.291Z,1014.19
2018-07-08T04:20:44.290Z,1014.22
2018-07-08T04:21:44.288Z,1014.22
2018-07-08T04:22:44.288Z,1014.16
2018-07-08T04:23:44.289Z,1014.18
2018-07-08T04:24:44.288Z,1014.15
2018-07-08T04:25:44.284Z,1014.16
2018-07-08T04:26:44.284Z,1014.13
2018-07-08T04:27:44.282Z,1014.15
2018-07-08T04:28:44.279Z,1014.15
2018-07-08T04:29:44.280Z,1014.16
2018-07-08T04:30:44.282Z,1014.18
2018-07-08T04:31:44.278Z,1014.21
2018-07-08T04:32:44.276Z,1014.24
2018-07-08T04:33:44.274Z,1014.20
2018-07-08T04:34:44.275Z,1014.26
2018-07-08T04:35:44.280Z,1014.31
2018-07-08T04:36:44.272Z,1014.29
2018-07-08T04:37:44.273Z,1014.24
2018-07-08T04:38:44.270Z,1014.27
2018-07-08T04:39:44.272Z,1014.31
2018-07-08T04:40:44.269Z,1014.31
2018-07-08T04:41:44.265Z,1014.32
2018-07-08T04:42:44.267Z,1014.34
2018-07-08T04:43:44.265Z,1014.33
2018-07-08T04:44:44.265Z,1014.31
2018-07-08T04:45:44.261Z,1014.33
2018-07-08T04:46:44.260Z,1014.35
2018-07-08T04:47:44.296Z,1014.32
2018-07-08T04:48:44.257Z,1014.34
2018-07-08T04:49:44.257Z,1014.37
2018-07-08T04:50:44.257Z,1014.33
2018-07-08T04:51:44.255Z,1014.36
2018-07-08T04:52:44.254Z,1014.44
2018-07-08T04:53:44.256Z,1014.38
2018-07-08T04:54:44.252Z,1014.46
2018-07-08T04:55:44.254Z,1014.48
2018-07-08T04:56:44.252Z,1014.42
2018-07-08T04:57:44.249Z,1014.40
2018-07-08T04:58:44.247Z,1014.41
2018-07-08T04:59:44.248Z,1014.42
2018-07-08T05:00:44.246Z,1014.41
2018-07-08T05:01:44.245Z,1014.42
2018-07-08T05:02:44.243Z,1014.42
2018-07-08T05:03:44.244Z,1014.39
2018-07-08T05:04:44.242Z,1014.39
2018-07-08T05:05:44.242Z,1014.41
2018-07-08T05:06:44.241Z,1014.42
2018-07-08T05:07:44.240Z,1014.42
2018-07-08T05:08:44.242Z,1014.43
2018-07-08T05:09:44.237Z,1014.43
2018-07-08T05:10:44.237Z,1014.47
2018-07-08T05:11:44.237Z,1014.47
2018-07-08T05:12:44.235Z,1014.50
2018-07-08T05:13:44.233Z,1014.50
2018-07-08T05:14:44.233Z,1014.51
2018-07-08T05:15:44.232Z,1014.55
2018-07-08T05:16:44.230Z,1014.56
2018-07-08T05:17:44.231Z,1014.56
2018-07-08T05:18:44.230Z,1014.60
2018-07-08T05:19:44.232Z,1014.60
2018-07-08T05:20:44.227Z,1014.64
2018-07-08T05:21:44.226Z,1014.80
2018-07-08T05:22:44.225Z,1015.16
2018-07-08T05:23:44.227Z,1015.31
2018-07-08T05:24:44.223Z,1015.39
2018-07-08T05:25:44.225Z,1015.38
2018-07-08T05:26:44.227Z,1015.41
2018-07-08T05:27:44.228Z,1015.44
2018-07-08T05:28:44.228Z,1015.48
2018-07-08T05:29:44.271Z,1015.48
2018-07-08T05:30:44.230Z,1015.48
2018-07-08T05:31:44.237Z,1015.47
2018-07-08T05:32:44.235Z,1015.38
2018-07-08T05:33:44.238Z,1015.34
2018-07-08T05:34:44.243Z,1015.23
2018-07-08T05:35:44.262Z,1015.09
2018-07-08T05:36:44.251Z,1015.05
2018-07-08T05:37:44.256Z,1015.03
2018-07-08T05:38:44.261Z,1015.02
2018-07-08T05:39:44.267Z,1015.02
2018-07-08T05:40:44.272Z,1014.97
2018-07-08T05:41:44.278Z,1014.93
2018-07-08T05:42:44.285Z,1014.89
2018-07-08T05:43:44.290Z,1014.85
2018-07-08T05:44:44.296Z,1014.88
2018-07-08T05:45:44.301Z,1014.86
2018-07-08T05:46:44.308Z,1014.85
2018-07-08T05:47:44.313Z,1014.82
2018-07-08T05:48:44.317Z,1014.87
2018-07-08T05:49:44.323Z,1014.89
2018-07-08T05:50:44.327Z,1014.89
2018-07-08T05:51:44.333Z,1014.95
2018-07-08T05:52:44.338Z,1014.97
2018-07-08T05:53:44.343Z,1014.99
2018-07-08T05:54:44.347Z,1014.98
2018-07-08T05:55:44.353Z,1014.98
2018-07-08T05:56:44.357Z,1015.01
2018-07-08T05:57:44.361Z,1015.01
2018-07-08T05:58:44.365Z,1015.03
2018-07-08T05:59:44.370Z,1014.97
2018-07-08T06:00:44.373Z,1015.00
2018-07-08T06:01:44.378Z,1015.01
2018-07-08T06:02:44.382Z,1014.95
2018-07-08T06:03:44.384Z,1014.94
2018-07-08T06:04:44.388Z,1014.98
2018-07-08T06:05:44.392Z,1014.92
2018-07-08T06:06:44.398Z,1014.93
2018-07-08T06:07:44.400Z,1014.91
2018-07-08T06:08:44.403Z,1014.93
2018-07-08T06:09:44.407Z,1014.90
2018-07-08T06:10:44.410Z,1014.89
2018-07-08T06:11:44.417Z,1014.86
2018-07-08T06:12:44.417Z,1014.82
2018-07-08T06:13:44.420Z,1014.83
2018-07-08T06:14:44.425Z,1014.85
2018-07-08T06:15:44.431Z,1014.90
2018-07-08T06:16:44.439Z,1014.88
2018-07-08T06:17:44.435Z,1014.88
2018-07-08T06:18:44.438Z,1014.88
2018-07-08T06:19:44.442Z,1014.91
2018-07-08T06:20:44.444Z,1014.95
2018-07-08T06:21:44.449Z,1014.97
2018-07-08T06:22:44.452Z,1014.96
2018-07-08T06:23:44.455Z,1014.93
2018-07-08T06:24:44.458Z,1014.96
2018-07-08T06:25:44.462Z,1014.92
2018-07-08T06:26:44.466Z,1014.97
2018-07-08T06:27:44.469Z,1014.98
2018-07-08T06:28:44.473Z,1014.93
2018-07-08T06:29:44.477Z,1014.95
2018-07-08T06:30:44.480Z,1015.02
2018-07-08T06:31:44.538Z,1014.98
2018-07-08T06:32:44.488Z,1015.01
2018-07-08T06:33:44.490Z,1015.06
2018-07-08T06:34:44.495Z,1014.99
2018-07-08T06:35:44.499Z,1015.02
2018-07-08T06:36:44.502Z,1015.02
2018-07-08T06:37:44.506Z,1014.97
2018-07-08T06:38:44.510Z,1014.98
2018-07-08T06:39:44.515Z,1015.03
2018-07-08T06:40:44.521Z,1015.09
2018-07-08T06:41:44.524Z,1015.01
2018-07-08T06:42:44.527Z,1015.01
2018-07-08T06:43:44.530Z,1014.97
2018-07-08T06:44:44.535Z,1014.94
2018-07-08T06:45:44.538Z,1014.88
2018-07-08T06:46:44.541Z,1014.90
2018-07-08T06:47:44.548Z,1014.93
2018-07-08T06:48:44.548Z,1014.89
2018-07-08T06:49:44.553Z,1014.89
2018-07-08T06:50:44.557Z,1014.88
2018-07-08T06:51:44.561Z,1014.89
2018-07-08T06:52:44.565Z,1014.87
2018-07-08T06:53:44.568Z,1014.93
2018-07-08T06:54:44.572Z,1014.92
2018-07-08T06:55:44.579Z,1014.93
2018-07-08T06:56:44.580Z,1014.89
2018-07-08T06:57:44.620Z,1014.92
2018-07-08T06:58:44.589Z,1014.90
2018-07-08T06:59:44.591Z,1014.93
2018-07-08T07:00:44.595Z,1014.91
2018-07-08T07:01:44.606Z,1014.92
2018-07-08T07:02:44.602Z,1014.89
2018-07-08T07:03:44.609Z,1014.88
2018-07-08T07:04:44.611Z,1014.85
2018-07-08T07:05:44.615Z,1014.88
2018-07-08T07:06:44.674Z,1014.85
2018-07-08T07:07:44.623Z,1014.82
2018-07-08T07:08:44.626Z,1014.80
2018-07-08T07:09:44.629Z,1014.80
2018-07-08T07:10:44.634Z,1014.80
2018-07-08T07:11:44.638Z,1014.79
2018-07-08T07:12:44.639Z,1014.76
2018-07-08T07:13:44.643Z,1014.78
2018-07-08T07:14:44.646Z,1014.76
2018-07-08T07:15:44.654Z,1014.70
2018-07-08T07:16:44.655Z,1014.79
2018-07-08T07:17:44.656Z,1014.81
2018-07-08T07:18:44.662Z,1014.74
2018-07-08T07:19:44.664Z,1014.79
2018-07-08T07:20:44.668Z,1014.77
2018-07-08T07:21:44.672Z,1014.71
2018-07-08T07:22:44.674Z,1014.75
2018-07-08T07:23:44.680Z,1014.78
2018-07-08T07:24:44.681Z,1014.77
2018-07-08T07:25:44.684Z,1014.79
2018-07-08T07:26:44.688Z,1014.84
2018-07-08T07:27:44.691Z,1014.83
2018-07-08T07:28:44.694Z,1014.80
2018-07-08T07:29:44.696Z,1014.76
2018-07-08T07:30:44.700Z,1014.75
2018-07-08T07:31:44.703Z,1014.79
2018-07-08T07:32:44.705Z,1014.80
2018-07-08T07:33:44.707Z,1014.72
2018-07-08T07:34:44.712Z,1014.86
2018-07-08T07:35:44.717Z,1015.03
2018-07-08T07:36:44.718Z,1015.14
2018-07-08T07:37:44.723Z,1015.25
2018-07-08T07:38:44.727Z,1015.25
2018-07-08T07:39:44.730Z,1015.22
2018-07-08T07:40:44.736Z,1015.25
2018-07-08T07:41:44.744Z,1015.36
2018-07-08T07:42:44.748Z,1015.48
2018-07-08T07:43:44.756Z,1015.51
2018-07-08T07:44:44.762Z,1015.62
2018-07-08T07:45:44.770Z,1015.62
2018-07-08T07:46:44.780Z,1015.71
2018-07-08T07:47:44.788Z,1015.81
2018-07-08T07:48:44.794Z,1015.93
2018-07-08T07:49:44.804Z,1015.99
2018-07-08T07:50:44.814Z,1015.92
2018-07-08T07:51:44.824Z,1015.99
2018-07-08T07:52:44.834Z,1015.97
2018-07-08T07:53:44.844Z,1015.97
2018-07-08T07:54:44.855Z,1015.98
2018-07-08T07:55:44.867Z,1015.98
2018-07-08T07:56:44.878Z,1016.01
2018-07-08T07:57:44.893Z,1015.98
2018-07-08T07:58:44.908Z,1015.95
2018-07-08T07:59:44.917Z,1016.00
2018-07-08T08:00:44.928Z,1016.00
2018-07-08T08:01:44.941Z,1016.06
2018-07-08T08:02:44.954Z,1016.06
2018-07-08T08:03:44.970Z,1016.07
2018-07-08T08:04:44.981Z,1016.02
2018-07-08T08:05:45.001Z,1016.04
2018-07-08T08:06:45.012Z,1016.05
2018-07-08T08:07:45.023Z,1016.10
2018-07-08T08:08:45.037Z,1016.09
2018-07-08T08:09:45.052Z,1016.11
2018-07-08T08:10:45.129Z,1016.09
2018-07-08T08:11:45.081Z,1016.09
2018-07-08T08:12:45.094Z,1016.10
2018-07-08T08:13:45.155Z,1016.08
2018-07-08T08:14:45.124Z,1016.08
2018-07-08T08:15:45.138Z,1016.08
2018-07-08T08:16:45.154Z,1016.13
2018-07-08T08:17:45.167Z,1016.08
2018-07-08T08:18:45.182Z,1016.02
2018-07-08T08:19:45.197Z,1016.07
2018-07-08T08:20:45.211Z,1016.08
2018-07-08T08:21:45.227Z,1016.04
2018-07-08T08:22:45.241Z,1015.96
2018-07-08T08:23:45.256Z,1016.02
2018-07-08T08:24:45.269Z,1015.99
2018-07-08T08:25:45.286Z,1015.90
2018-07-08T08:26:45.366Z,1015.90
2018-07-08T08:27:45.313Z,1015.85
2018-07-08T08:28:45.328Z,1015.94
2018-07-08T08:29:45.343Z,1015.88
2018-07-08T08:30:45.358Z,1015.83
2018-07-08T08:31:45.374Z,1015.76
2018-07-08T08:32:45.427Z,1015.65
2018-07-08T08:33:45.403Z,1015.60
2018-07-08T08:34:45.417Z,1015.57
2018-07-08T08:35:45.432Z,1015.56
2018-07-08T08:36:45.448Z,1015.51
2018-07-08T08:37:45.466Z,1015.59
2018-07-08T08:38:45.478Z,1015.58
2018-07-08T08:39:45.495Z,1015.57
2018-07-08T08:40:45.508Z,1015.56
2018-07-08T08:41:45.524Z,1015.49
2018-07-08T08:42:45.538Z,1015.50
2018-07-08T08:43:45.554Z,1015.48
2018-07-08T08:44:45.567Z,1015.49
2018-07-08T08:45:45.581Z,1015.49
2018-07-08T08:46:45.598Z,1015.44
2018-07-08T08:47:45.613Z,1015.45
2018-07-08T08:48:45.630Z,1015.49
2018-07-08T08:49:45.642Z,1015.53
2018-07-08T08:50:45.660Z,1015.57
2018-07-08T08:51:45.673Z,1015.57
2018-07-08T08:52:45.687Z,1015.58
2018-07-08T08:53:45.704Z,1015.57
2018-07-08T08:54:45.717Z,1015.55
2018-07-08T08:55:45.734Z,1015.59
2018-07-08T08:56:45.751Z,1015.60
2018-07-08T08:57:45.764Z,1015.53
2018-07-08T08:58:45.780Z,1015.50
2018-07-08T08:59:45.797Z,1015.52
2018-07-08T09:00:45.810Z,1015.49
2018-07-08T09:01:45.826Z,1015.56
2018-07-08T09:02:45.843Z,1015.59
2018-07-08T09:03:45.866Z,1015.59
2018-07-08T09:04:45.873Z,1015.56
2018-07-08T09:05:45.887Z,1015.63
2018-07-08T09:06:45.901Z,1015.60
2018-07-08T09:07:45.917Z,1015.60
2018-07-08T09:08:45.932Z,1015.61
2018-07-08T09:09:45.954Z,1015.63
2018-07-08T09:10:46.003Z,1015.60
2018-07-08T09:11:45.979Z,1015.61
2018-07-08T09:12:45.994Z,1015.65
2018-07-08T09:13:46.010Z,1015.65
2018-07-08T09:14:46.026Z,1015.63
2018-07-08T09:15:46.043Z,1015.68
2018-07-08T09:16:46.057Z,1015.64
2018-07-08T09:17:46.077Z,1015.61
2018-07-08T09:18:46.089Z,1015.54
2018-07-08T09:19:46.103Z,1015.63
2018-07-08T09:20:46.119Z,1015.60
2018-07-08T09:21:46.137Z,1015.64
2018-07-08T09:22:46.151Z,1015.67
2018-07-08T09:23:46.177Z,1015.62
2018-07-08T09:24:46.181Z,1015.57
2018-07-08T09:25:46.196Z,1015.63
2018-07-08T09:26:46.211Z,1015.66
2018-07-08T09:27:46.228Z,1015.66
2018-07-08T09:28:46.244Z,1015.65
2018-07-08T09:29:46.259Z,1015.60
2018-07-08T09:30:46.275Z,1015.59
2018-07-08T09:31:46.291Z,1015.58
2018-07-08T09:32:46.303Z,1015.60
2018-07-08T09:33:46.320Z,1015.64
2018-07-08T09:34:46.336Z,1015.69
2018-07-08T09:35:46.351Z,1015.67
2018-07-08T09:36:46.366Z,1015.71
2018-07-08T09:37:46.382Z,1015.67
2018-07-08T09:38:46.459Z,1015.69
2018-07-08T09:39:46.413Z,1015.67
2018-07-08T09:40:46.429Z,1015.68
2018-07-08T09:41:46.443Z,1015.69
2018-07-08T09:42:46.460Z,1015.63
2018-07-08T09:43:46.476Z,1015.67
2018-07-08T09:44:46.492Z,1015.70
2018-07-08T09:45:46.506Z,1015.70
2018-07-08T09:46:46.520Z,1015.72
2018-07-08T09:47:46.541Z,1015.82
2018-07-08T09:48:46.555Z,1015.76
2018-07-08T09:49:46.570Z,1015.78
2018-07-08T09:50:46.585Z,1015.80
2018-07-08T09:51:46.602Z,1015.77
2018-07-08T09:52:46.615Z,1015.76
2018-07-08T09:53:46.631Z,1015.82
2018-07-08T09:54:46.647Z,1015.75
2018-07-08T09:55:46.662Z,1015.74
2018-07-08T09:56:46.677Z,1015.74
2018-07-08T09:57:46.692Z,1015.74
2018-07-08T09:58:46.709Z,1015.87
2018-07-08T09:59:46.726Z,1015.80
2018-07-08T10:00:46.739Z,1015.78
2018-07-08T10:01:46.754Z,1015.74
2018-07-08T10:02:46.769Z,1015.70
2018-07-08T10:03:46.785Z,1015.75
2018-07-08T10:04:46.809Z,1015.71
2018-07-08T10:05:46.814Z,1015.74
2018-07-08T10:06:46.831Z,1015.74
2018-07-08T10:07:46.846Z,1015.67
2018-07-08T10:08:46.937Z,1015.68
2018-07-08T10:09:46.875Z,1015.67
2018-07-08T10:10:46.922Z,1015.69
2018-07-08T10:11:46.906Z,1015.64
2018-07-08T10:12:46.920Z,1015.63
2018-07-08T10:13:47.007Z,1015.62
2018-07-08T10:14:46.951Z,1015.58
2018-07-08T10:15:46.966Z,1015.67
2018-07-08T10:16:46.980Z,1015.63
2018-07-08T10:17:47.011Z,1015.70
2018-07-08T10:18:47.012Z,1015.61
2018-07-08T10:19:47.138Z,1015.55
2018-07-08T10:20:47.041Z,1015.58
2018-07-08T10:21:47.057Z,1015.61
2018-07-08T10:22:47.072Z,1015.60
2018-07-08T10:23:47.086Z,1015.57
2018-07-08T10:24:47.100Z,1015.56
2018-07-08T10:25:47.116Z,1015.54
2018-07-08T10:26:47.132Z,1015.61
2018-07-08T10:27:47.146Z,1015.58
2018-07-08T10:28:47.160Z,1015.60
2018-07-08T10:29:47.176Z,1015.52
2018-07-08T10:30:47.192Z,1015.59
2018-07-08T10:31:47.204Z,1015.61
2018-07-08T10:32:47.220Z,1015.49
2018-07-08T10:33:47.233Z,1015.52
2018-07-08T10:34:47.248Z,1015.55
2018-07-08T10:35:47.264Z,1015.50
2018-07-08T10:36:47.279Z,1015.45
2018-07-08T10:37:47.294Z,1015.46
2018-07-08T10:38:47.307Z,1015.42
2018-07-08T10:39:47.320Z,1015.47
2018-07-08T10:40:47.339Z,1015.50
2018-07-08T10:41:47.349Z,1015.49
2018-07-08T10:42:47.367Z,1015.48
2018-07-08T10:43:47.379Z,1015.52
2018-07-08T10:44:47.393Z,1015.44
2018-07-08T10:45:47.410Z,1015.42
2018-07-08T10:46:47.421Z,1015.44
2018-07-08T10:47:47.435Z,1015.53
2018-07-08T10:48:47.450Z,1015.53
2018-07-08T10:49:47.465Z,1015.43
2018-07-08T10:50:47.479Z,1015.47
2018-07-08T10:51:47.494Z,1015.45
2018-07-08T10:52:47.508Z,1015.44
2018-07-08T10:53:47.521Z,1015.45
2018-07-08T10:54:47.536Z,1015.39
2018-07-08T10:55:47.550Z,1015.35
2018-07-08T10:56:47.562Z,1015.38
2018-07-08T10:57:47.578Z,1015.46
2018-07-08T10:58:47.591Z,1015.38
2018-07-08T10:59:47.606Z,1015.33
2018-07-08T11:00:47.619Z,1015.29
2018-07-08T11:01:47.682Z,1015.25
2018-07-08T11:02:47.649Z,1015.25
2018-07-08T11:03:47.664Z,1015.26
2018-07-08T11:04:47.675Z,1015.21
2018-07-08T11:05:47.690Z,1015.25
2018-07-08T11:06:47.704Z,1015.19
2018-07-08T11:07:47.718Z,1015.30
2018-07-08T11:08:47.731Z,1015.22
2018-07-08T11:09:47.743Z,1015.13
2018-07-08T11:10:47.784Z,1014.84
2018-07-08T11:11:47.773Z,1014.81
2018-07-08T11:12:47.785Z,1015.14
2018-07-08T11:13:47.797Z,1015.09
2018-07-08T11:14:47.812Z,1015.04
2018-07-08T11:15:47.825Z,1014.97
2018-07-08T11:16:47.837Z,1015.08
2018-07-08T11:17:47.851Z,1014.66
2018-07-08T11:18:47.862Z,1014.99
2018-07-08T11:19:47.877Z,1014.89
2018-07-08T11:20:47.910Z,1014.79
2018-07-08T11:21:47.901Z,1014.78
2018-07-08T11:22:47.913Z,1014.73
2018-07-08T11:23:47.926Z,1014.72
2018-07-08T11:24:47.937Z,1014.71
2018-07-08T11:25:47.949Z,1014.72
2018-07-08T11:26:47.962Z,1014.64
2018-07-08T11:27:47.975Z,1014.65
2018-07-08T11:28:47.987Z,1014.66
2018-07-08T11:29:47.998Z,1014.64
2018-07-08T11:30:48.010Z,1014.59
2018-07-08T11:31:48.023Z,1014.57
2018-07-08T11:32:48.035Z,1014.58
2018-07-08T11:33:48.044Z,1014.50
2018-07-08T11:34:48.054Z,1014.52
2018-07-08T11:35:48.066Z,1014.52
2018-07-08T11:36:48.077Z,1014.54
2018-07-08T11:37:48.089Z,1014.48
2018-07-08T11:38:48.098Z,1014.47
2018-07-08T11:39:48.112Z,1014.55
2018-07-08T11:40:48.122Z,1014.51
2018-07-08T11:41:48.131Z,1014.53
2018-07-08T11:42:48.183Z,1014.43
2018-07-08T11:43:48.153Z,1014.40
2018-07-08T11:44:48.166Z,1014.44
2018-07-08T11:45:48.174Z,1014.42
2018-07-08T11:46:48.185Z,1014.48
2018-07-08T11:47:48.194Z,1014.54
2018-07-08T11:48:48.205Z,1014.58
2018-07-08T11:49:48.221Z,1014.57
2018-07-08T11:50:48.226Z,1014.57
2018-07-08T11:51:48.234Z,1014.45
2018-07-08T11:52:48.245Z,1014.45
2018-07-08T11:53:48.255Z,1014.40
2018-07-08T11:54:48.269Z,1014.40
2018-07-08T11:55:48.274Z,1014.35
2018-07-08T11:56:48.282Z,1014.35
2018-07-08T11:57:48.293Z,1014.31
2018-07-08T11:58:48.303Z,1014.35
2018-07-08T11:59:48.313Z,1014.34
2018-07-08T12:00:48.321Z,1014.31
2018-07-08T12:01:48.333Z,1014.41
2018-07-08T12:02:48.348Z,1014.44
2018-07-08T12:03:48.351Z,1014.44
2018-07-08T12:04:48.359Z,1014.41
2018-07-08T12:05:48.369Z,1014.37